Time;durP1;ratioP1;P1;durP2;ratioP2;P2;SDS_P1;SDS_P2;PMS_P1;PMS_P2;Temp;Humidity;BMP_temperature;BMP_pressure;BME280_temperature;BME280_humidity;BME280_pressure;Samples;Min_cycle;Max_cycle;Signal;HPM_P1;HPM_P2
2023/05/03 00:02:09;;;;;;;;;10.67;9.33;24.90;35.10;;;;;;109950;1252;46037;-62
2023/05/03 00:04:36;;;;;;;;;11.00;10.00;24.80;34.90;;;;;;109940;1253;55987;-61
2023/05/03 00:07:03;;;;;;;;;11.00;10.00;24.80;34.90;;;;;;109984;1254;54027;-60
2023/05/03 00:09:32;;;;;;;;;11.00;9.00;24.80;35.00;;;;;;109902;1257;49831;-63
2023/05/03 00:12:00;;;;;;;;;11.50;10.00;24.80;35.00;;;;;;109955;1256;48941;-61
2023/05/03 00:14:27;;;;;;;;;10.50;9.50;24.80;35.00;;;;;;109979;1252;46850;-61
2023/05/03 00:16:54;;;;;;;;;9.00;8.00;24.80;35.00;;;;;;109947;1252;56370;-60
2023/05/03 00:19:25;;;;;;;;;12.00;11.00;24.80;35.20;;;;;;110020;1252;55294;-60
2023/05/03 00:21:53;;;;;;;;;11.00;10.00;24.80;35.00;;;;;;109944;1256;49583;-61
2023/05/03 00:24:20;;;;;;;;;11.00;9.00;24.80;35.60;;;;;;109936;1256;49209;-61
2023/05/03 00:26:46;;;;;;;;;10.00;9.00;24.80;35.10;;;;;;109913;1252;46498;-61
2023/05/03 00:29:13;;;;;;;;;11.75;10.75;24.80;35.30;;;;;;109971;1257;56872;-61
2023/05/03 00:31:43;;;;;;;;;10.00;9.00;24.80;35.10;;;;;;109963;1252;54784;-61
2023/05/03 00:34:10;;;;;;;;;12.00;10.00;24.80;35.60;;;;;;109966;1252;50408;-61
2023/05/03 00:36:37;;;;;;;;;10.00;9.00;24.70;35.10;;;;;;109994;1256;49966;-62
2023/05/03 00:39:04;;;;;;;;;11.00;10.00;24.70;35.10;;;;;;109938;1252;46801;-61
2023/05/03 00:41:31;;;;;;;;;11.50;10.50;24.70;35.00;;;;;;109876;1252;57027;-61
2023/05/03 00:43:58;;;;;;;;;11.33;10.33;24.70;35.20;;;;;;109932;1257;54591;-61
2023/05/03 00:46:25;;;;;;;;;11.00;10.00;24.70;35.10;;;;;;109967;1257;49301;-61
2023/05/03 00:48:53;;;;;;;;;12.00;11.00;24.70;35.10;;;;;;109917;1252;49197;-62
2023/05/03 00:51:20;;;;;;;;;11.75;10.75;24.70;35.10;;;;;;109902;1257;46653;-61
2023/05/03 00:53:47;;;;;;;;;11.00;11.00;24.70;35.10;;;;;;109851;1254;56823;-62
2023/05/03 00:56:22;;;;;;;;;12.00;11.00;24.70;35.10;;;;;;109955;1252;53778;-62
2023/05/03 00:58:52;;;;;;;;;14.00;12.00;24.70;35.10;;;;;;109870;1253;49260;-60
2023/05/03 01:01:19;;;;;;;;;13.00;11.00;24.70;35.10;;;;;;109841;1252;49319;-61
2023/05/03 01:03:46;;;;;;;;;13.00;11.00;24.70;35.30;;;;;;109925;1257;46906;-62
2023/05/03 01:06:55;;;;;;;;;13.00;10.00;24.70;35.10;;;;;;109894;1252;56947;-62
2023/05/03 01:09:25;;;;;;;;;12.00;11.00;24.60;34.80;;;;;;109532;1258;55027;-62
2023/05/03 01:12:14;;;;;;;;;12.00;10.00;24.60;35.00;;;;;;109905;1252;49427;-62
2023/05/03 01:15:16;;;;;;;;;13.67;12.67;24.70;35.10;;;;;;109993;1252;50385;-61
2023/05/03 01:18:03;;;;;;;;;12.00;11.00;24.70;35.10;;;;;;109955;1252;46968;-64
2023/05/03 01:20:31;;;;;;;;;10.00;9.00;24.70;35.20;;;;;;109950;1254;57681;-61
2023/05/03 01:22:58;;;;;;;;;12.00;10.00;24.70;35.10;;;;;;109848;1252;54666;-62
2023/05/03 01:25:28;;;;;;;;;12.00;11.00;24.70;35.60;;;;;;109992;1255;49642;-63
2023/05/03 01:27:55;;;;;;;;;12.00;11.00;24.60;35.20;;;;;;109880;1254;49059;-62
2023/05/03 01:30:26;;;;;;;;;10.00;9.00;24.60;35.00;;;;;;109979;1252;45858;-61
2023/05/03 01:32:55;;;;;;;;;11.00;10.00;24.60;35.00;;;;;;109885;1255;57127;-62
2023/05/03 01:35:29;;;;;;;;;13.00;12.00;24.60;35.20;;;;;;109955;1252;53439;-61
2023/05/03 01:37:56;;;;;;;;;10.00;9.00;24.60;35.50;;;;;;109920;1257;49485;-62
2023/05/03 01:40:27;;;;;;;;;11.50;10.25;24.60;35.30;;;;;;109961;1255;49511;-62
2023/05/03 01:42:54;;;;;;;;;10.50;9.50;24.60;35.30;;;;;;109873;1257;46504;-62
2023/05/03 01:45:22;;;;;;;;;11.00;10.00;24.60;35.60;;;;;;109974;1252;56498;-63
2023/05/03 01:47:49;;;;;;;;;13.00;10.00;24.60;35.60;;;;;;109846;1257;53833;-61
2023/05/03 01:50:16;;;;;;;;;11.00;10.00;24.60;35.60;;;;;;109903;1254;49150;-62
2023/05/03 01:52:44;;;;;;;;;11.00;10.00;24.60;35.40;;;;;;109936;1255;48983;-62
2023/05/03 01:55:11;;;;;;;;;11.00;10.00;24.60;35.40;;;;;;109955;1254;46407;-64
2023/05/03 01:57:38;;;;;;;;;13.00;12.00;24.60;35.60;;;;;;109906;1257;56799;-62
2023/05/03 02:00:06;;;;;;;;;11.00;10.00;24.60;35.40;;;;;;109891;1257;53815;-61
2023/05/03 02:02:33;;;;;;;;;11.00;8.00;24.60;35.40;;;;;;110004;1255;49806;-61
2023/05/03 02:05:00;;;;;;;;;11.00;10.00;24.50;35.30;;;;;;110000;1252;49905;-62
2023/05/03 02:07:27;;;;;;;;;10.50;9.50;24.50;35.50;;;;;;110001;1257;47018;-61
2023/05/03 02:09:54;;;;;;;;;12.00;10.67;24.50;35.00;;;;;;109987;1258;56756;-60
2023/05/03 02:12:21;;;;;;;;;11.00;10.00;24.50;35.30;;;;;;109984;1252;53686;-61
2023/05/03 02:14:48;;;;;;;;;11.00;10.00;24.50;35.50;;;;;;109958;1253;50112;-60
2023/05/03 02:17:17;;;;;;;;;11.00;10.00;24.50;35.40;;;;;;109944;1256;49720;-64
2023/05/03 02:19:44;;;;;;;;;13.00;11.00;24.50;35.30;;;;;;109972;1252;46628;-61
2023/05/03 02:22:11;;;;;;;;;11.00;10.00;24.50;35.50;;;;;;109885;1252;56678;-61
2023/05/03 02:24:38;;;;;;;;;12.00;8.00;24.50;35.30;;;;;;109991;1252;54052;-62
2023/05/03 02:27:05;;;;;;;;;11.50;9.00;24.50;35.30;;;;;;109910;1255;49075;-62
2023/05/03 02:29:32;;;;;;;;;10.00;9.00;24.50;35.30;;;;;;110032;1252;49855;-63
2023/05/03 02:31:59;;;;;;;;;11.00;10.00;24.40;35.20;;;;;;110011;1256;46641;-62
2023/05/03 02:34:26;;;;;;;;;10.00;9.00;24.40;35.80;;;;;;109979;1252;57213;-62
2023/05/03 02:36:53;;;;;;;;;13.50;12.00;24.40;35.30;;;;;;109985;1257;53967;-61
2023/05/03 02:39:20;;;;;;;;;10.00;9.00;24.40;35.30;;;;;;109983;1252;50524;-61
2023/05/03 02:41:47;;;;;;;;;12.33;10.67;24.40;35.30;;;;;;109967;1256;49818;-62
2023/05/03 02:44:14;;;;;;;;;11.67;10.67;24.40;35.50;;;;;;110043;1251;47626;-62
2023/05/03 02:46:42;;;;;;;;;10.00;9.00;24.40;35.30;;;;;;109957;1252;57310;-62
2023/05/03 02:49:09;;;;;;;;;10.00;9.00;24.40;35.30;;;;;;110001;1256;55078;-62
2023/05/03 02:51:36;;;;;;;;;10.00;9.33;24.40;35.20;;;;;;109999;1255;49976;-62
2023/05/03 02:54:03;;;;;;;;;11.00;9.00;24.40;34.80;;;;;;110035;1256;48902;-61
2023/05/03 02:56:30;;;;;;;;;10.00;9.00;24.40;35.40;;;;;;109994;1254;47724;-62
2023/05/03 02:58:57;;;;;;;;;11.50;10.50;24.40;35.30;;;;;;109855;1254;57015;-62
2023/05/03 03:01:24;;;;;;;;;10.00;9.00;24.40;35.30;;;;;;110044;1254;54745;-62
2023/05/03 03:03:50;;;;;;;;;11.00;10.00;24.30;35.20;;;;;;110024;1257;49570;-62
2023/05/03 03:06:17;;;;;;;;;13.00;11.00;24.30;35.50;;;;;;110059;1254;49181;-62
2023/05/03 03:08:44;;;;;;;;;10.33;9.00;24.30;35.30;;;;;;110021;1257;46535;-61
2023/05/03 03:11:12;;;;;;;;;11.00;10.00;24.30;35.20;;;;;;110089;1252;56844;-63
2023/05/03 03:13:40;;;;;;;;;10.00;9.00;24.30;35.20;;;;;;109981;1257;54495;-63
2023/05/03 03:16:07;;;;;;;;;12.00;11.00;24.30;35.30;;;;;;109987;1257;49624;-62
2023/05/03 03:18:35;;;;;;;;;14.00;12.00;24.30;35.30;;;;;;109939;1257;49550;-63
2023/05/03 03:21:02;;;;;;;;;11.50;10.50;24.30;35.40;;;;;;110055;1252;46642;-60
2023/05/03 03:23:29;;;;;;;;;12.00;10.67;24.30;35.20;;;;;;110038;1252;56165;-61
2023/05/03 03:25:56;;;;;;;;;12.50;11.00;24.30;35.20;;;;;;110054;1257;54201;-61
2023/05/03 03:28:23;;;;;;;;;12.33;11.33;24.30;35.20;;;;;;109992;1252;49571;-61
2023/05/03 03:30:50;;;;;;;;;13.00;10.00;24.30;35.20;;;;;;110000;1255;49358;-61
2023/05/03 03:33:18;;;;;;;;;12.00;11.00;24.30;35.20;;;;;;109978;1256;46465;-61
2023/05/03 03:35:45;;;;;;;;;12.50;11.50;24.20;35.10;;;;;;110022;1253;56704;-60
2023/05/03 03:38:12;;;;;;;;;10.00;9.00;24.20;35.20;;;;;;109963;1256;53695;-63
2023/05/03 03:40:39;;;;;;;;;12.00;11.00;24.30;35.30;;;;;;109997;1252;49915;-61
2023/05/03 03:43:06;;;;;;;;;14.00;12.00;24.30;35.20;;;;;;110056;1252;49127;-62
2023/05/03 03:45:33;;;;;;;;;11.25;10.00;24.20;35.20;;;;;;110022;1254;46013;-61
2023/05/03 03:48:00;;;;;;;;;10.00;9.00;24.20;35.20;;;;;;109963;1257;57191;-61
2023/05/03 03:50:27;;;;;;;;;12.50;10.50;24.20;35.20;;;;;;109964;1257;54364;-60
2023/05/03 03:52:55;;;;;;;;;13.00;12.00;24.20;35.20;;;;;;110021;1252;49314;-62
2023/05/03 03:55:21;;;;;;;;;12.50;10.00;24.20;35.20;;;;;;109994;1254;49397;-62
2023/05/03 03:57:48;;;;;;;;;12.67;11.67;24.20;35.30;;;;;;110022;1252;46238;-63
2023/05/03 04:00:15;;;;;;;;;10.50;9.50;24.20;35.20;;;;;;109991;1252;56864;-64
2023/05/03 04:02:43;;;;;;;;;13.00;11.50;24.20;35.30;;;;;;109980;1256;53676;-65
2023/05/03 04:05:09;;;;;;;;;12.75;11.75;24.20;35.20;;;;;;109940;1252;49365;-60
2023/05/03 04:07:36;;;;;;;;;10.67;10.00;24.20;35.40;;;;;;109925;1256;49146;-63
2023/05/03 04:10:04;;;;;;;;;13.00;12.00;24.20;35.50;;;;;;109927;1252;46759;-64
2023/05/03 04:12:32;;;;;;;;;16.00;13.33;24.20;36.60;;;;;;109942;1257;56888;-61
2023/05/03 04:14:59;;;;;;;;;25.00;20.50;24.20;37.10;;;;;;109755;1257;53753;-63
2023/05/03 04:17:28;;;;;;;;;27.33;18.00;24.20;37.90;;;;;;109959;1255;49208;-63
2023/05/03 04:19:55;;;;;;;;;27.00;17.00;24.20;37.40;;;;;;109962;1256;50035;-61
2023/05/03 04:22:22;;;;;;;;;31.33;18.00;24.20;37.10;;;;;;110043;1256;46839;-64
2023/05/03 04:24:49;;;;;;;;;31.00;25.00;24.20;37.10;;;;;;109773;1257;56800;-66
2023/05/03 04:27:17;;;;;;;;;49.50;33.00;24.20;37.20;;;;;;109923;1252;53590;-68
2023/05/03 04:29:44;;;;;;;;;47.50;33.00;24.30;38.20;;;;;;109916;1252;50069;-65
2023/05/03 04:32:13;;;;;;;;;47.00;34.00;24.30;39.00;;;;;;110039;1252;49642;-66
2023/05/03 04:34:41;;;;;;;;;52.50;34.00;24.30;40.00;;;;;;109877;1252;46802;-66
2023/05/03 04:37:08;;;;;;;;;52.33;37.00;24.30;40.80;;;;;;109960;1252;56852;-63
2023/05/03 04:39:35;;;;;;;;;58.00;39.00;24.30;42.00;;;;;;109953;1252;53634;-61
2023/05/03 04:42:03;;;;;;;;;49.00;38.00;24.40;41.20;;;;;;110000;1257;49272;-61
2023/05/03 04:44:31;;;;;;;;;53.00;36.00;24.40;40.60;;;;;;109821;1257;49357;-60
2023/05/03 04:46:58;;;;;;;;;55.00;38.00;24.40;40.60;;;;;;110005;1256;46771;-61
2023/05/03 04:49:25;;;;;;;;;53.00;35.33;24.40;40.20;;;;;;109997;1255;56716;-60
2023/05/03 04:51:52;;;;;;;;;50.00;36.00;24.40;40.10;;;;;;109082;1252;1216109;-61
2023/05/03 04:54:19;;;;;;;;;47.00;33.00;24.40;39.90;;;;;;109988;1252;49309;-59
2023/05/03 04:56:46;;;;;;;;;52.00;34.00;24.40;39.70;;;;;;109936;1257;50304;-60
2023/05/03 04:59:13;;;;;;;;;51.00;36.50;24.40;39.60;;;;;;110057;1252;46555;-62
2023/05/03 05:01:40;;;;;;;;;50.00;32.00;24.40;39.40;;;;;;109957;1257;57262;-60
2023/05/03 05:04:07;;;;;;;;;43.33;33.67;24.40;39.20;;;;;;109971;1254;54216;-60
2023/05/03 05:06:34;;;;;;;;;48.00;36.00;24.40;39.00;;;;;;109996;1252;50336;-61
2023/05/03 05:09:01;;;;;;;;;55.00;36.00;24.40;38.90;;;;;;109917;1257;49013;-61
2023/05/03 05:11:28;;;;;;;;;45.33;33.00;24.40;39.00;;;;;;109918;1254;46306;-61
2023/05/03 05:13:55;;;;;;;;;47.00;32.00;24.40;38.60;;;;;;110032;1254;56497;-61
2023/05/03 05:16:22;;;;;;;;;47.50;34.50;24.40;38.50;;;;;;110320;1253;54121;-62
2023/05/03 05:18:49;;;;;;;;;48.50;33.00;24.40;38.60;;;;;;109992;1252;49101;-60
2023/05/03 05:21:16;;;;;;;;;53.50;36.00;24.40;38.30;;;;;;110045;1257;49796;-60
2023/05/03 05:23:43;;;;;;;;;40.00;30.50;24.40;38.60;;;;;;110045;1253;47085;-61
2023/05/03 05:26:10;;;;;;;;;43.00;34.50;24.40;38.30;;;;;;110116;1252;56448;-60
2023/05/03 05:28:37;;;;;;;;;46.50;32.50;24.40;38.50;;;;;;109996;1257;54170;-60
2023/05/03 05:31:04;;;;;;;;;43.00;29.00;24.40;38.20;;;;;;110063;1256;50933;-60
2023/05/03 05:33:31;;;;;;;;;49.00;31.00;24.40;38.10;;;;;;109943;1257;50129;-61
2023/05/03 05:35:58;;;;;;;;;50.00;33.50;24.40;38.10;;;;;;110035;1251;47437;-60
2023/05/03 05:38:25;;;;;;;;;39.33;29.33;24.40;38.30;;;;;;110056;1252;56717;-60
2023/05/03 05:40:52;;;;;;;;;41.00;31.00;24.40;38.00;;;;;;110013;1254;55115;-60
2023/05/03 05:43:19;;;;;;;;;46.75;32.25;24.40;37.90;;;;;;110061;1256;50201;-60
2023/05/03 05:45:46;;;;;;;;;45.00;31.00;24.40;37.60;;;;;;110055;1256;49221;-61
2023/05/03 05:48:13;;;;;;;;;40.50;29.50;24.40;38.10;;;;;;109975;1254;46872;-61
2023/05/03 05:50:40;;;;;;;;;42.00;31.00;24.40;37.80;;;;;;110000;1257;56247;-60
2023/05/03 05:53:08;;;;;;;;;42.50;30.50;24.40;38.10;;;;;;109991;1255;53481;-60
2023/05/03 05:55:35;;;;;;;;;47.00;33.00;24.40;37.80;;;;;;110048;1254;50061;-60
2023/05/03 05:58:02;;;;;;;;;53.00;32.50;24.40;37.90;;;;;;110015;1252;49847;-60
2023/05/03 06:00:30;;;;;;;;;44.00;32.00;24.40;37.80;;;;;;109989;1254;46667;-60
2023/05/03 06:02:57;;;;;;;;;46.00;34.00;24.40;37.80;;;;;;109983;1252;57116;-61
2023/05/03 06:05:24;;;;;;;;;40.00;31.00;24.40;37.80;;;;;;110022;1252;53661;-61
2023/05/03 06:07:51;;;;;;;;;38.50;31.50;24.40;37.70;;;;;;109995;1257;49225;-61
2023/05/03 06:10:18;;;;;;;;;43.50;30.00;24.40;37.70;;;;;;109979;1252;49347;-61
2023/05/03 06:12:45;;;;;;;;;32.67;29.33;24.40;37.90;;;;;;109938;1257;46535;-61
2023/05/03 06:15:12;;;;;;;;;38.00;29.00;24.40;37.70;;;;;;110023;1252;57438;-60
2023/05/03 06:17:39;;;;;;;;;39.00;30.00;24.40;37.70;;;;;;109977;1256;53185;-61
2023/05/03 06:20:11;;;;;;;;;42.00;31.00;24.40;37.80;;;;;;110048;1256;49541;-61
2023/05/03 06:22:38;;;;;;;;;40.00;28.00;24.40;37.60;;;;;;109977;1252;49185;-61
2023/05/03 06:25:06;;;;;;;;;35.00;31.00;24.40;37.50;;;;;;109998;1257;46208;-61
2023/05/03 06:27:33;;;;;;;;;44.33;33.33;24.40;37.50;;;;;;110036;1252;56509;-61
2023/05/03 06:30:00;;;;;;;;;30.00;29.00;24.50;37.50;;;;;;109998;1252;54707;-62
2023/05/03 06:32:27;;;;;;;;;42.00;31.00;24.50;37.40;;;;;;110001;1256;49724;-60
2023/05/03 06:34:55;;;;;;;;;35.00;28.00;24.50;37.40;;;;;;110011;1252;50283;-63
2023/05/03 06:37:22;;;;;;;;;34.00;28.00;24.50;37.40;;;;;;110029;1251;46590;-61
2023/05/03 06:39:49;;;;;;;;;42.00;29.00;24.50;37.30;;;;;;110107;1256;57684;-60
2023/05/03 06:42:16;;;;;;;;;37.50;28.50;24.50;37.30;;;;;;109974;1252;53597;-60
2023/05/03 06:44:43;;;;;;;;;;;24.50;37.30;;;;;;110016;1252;49661;-61
2023/05/03 06:47:10;;;;;;;;;41.00;29.00;24.50;37.50;;;;;;109976;1255;48716;-59
2023/05/03 06:49:37;;;;;;;;;40.00;32.00;24.50;37.20;;;;;;110022;1255;46495;-61
2023/05/03 06:52:04;;;;;;;;;33.00;28.00;24.50;37.30;;;;;;110055;1252;56657;-61
2023/05/03 06:54:31;;;;;;;;;29.00;26.00;24.60;37.30;;;;;;110078;1252;54491;-61
2023/05/03 06:56:58;;;;;;;;;40.00;27.00;24.60;37.30;;;;;;110042;1256;49368;-61
2023/05/03 06:59:25;;;;;;;;;38.00;27.67;24.60;37.50;;;;;;110012;1252;50412;-60
2023/05/03 07:01:52;;;;;;;;;31.00;26.50;24.60;37.20;;;;;;110017;1254;47271;-60
2023/05/03 07:04:19;;;;;;;;;41.00;31.00;24.60;37.20;;;;;;110019;1252;56569;-61
2023/05/03 07:06:46;;;;;;;;;35.00;25.00;24.60;37.20;;;;;;109981;1255;54096;-61
2023/05/03 07:09:13;;;;;;;;;34.00;29.00;24.60;37.20;;;;;;110049;1256;49637;-61
2023/05/03 07:11:46;;;;;;;;;31.00;27.00;24.60;37.10;;;;;;109993;1254;50465;-59
2023/05/03 07:14:13;;;;;;;;;31.00;25.00;24.60;37.10;;;;;;110192;1257;46881;-62
2023/05/03 07:16:40;;;;;;;;;35.00;24.67;24.60;37.50;;;;;;110016;1258;57081;-60
2023/05/03 07:19:07;;;;;;;;;26.00;21.00;24.70;37.90;;;;;;110051;1257;53449;-60
2023/05/03 07:21:34;;;;;;;;;30.00;27.00;24.70;38.90;;;;;;110075;1256;49432;-62
2023/05/03 07:24:02;;;;;;;;;30.00;25.00;24.70;39.40;;;;;;110122;1252;50064;-62
2023/05/03 07:26:29;;;;;;;;;31.00;24.00;24.70;39.50;;;;;;110180;1252;48129;-62
2023/05/03 07:28:56;;;;;;;;;28.50;22.00;24.80;39.90;;;;;;110011;1256;57722;-62
2023/05/03 07:31:23;;;;;;;;;28.00;23.00;24.80;40.00;;;;;;110145;1252;53725;-62
2023/05/03 07:33:50;;;;;;;;;37.00;24.00;24.80;40.00;;;;;;110130;1253;49896;-58
2023/05/03 07:36:17;;;;;;;;;29.50;20.00;24.90;40.30;;;;;;110225;1254;50213;-62
2023/05/03 07:38:45;;;;;;;;;28.33;22.00;24.90;40.00;;;;;;110235;1252;47278;-61
2023/05/03 07:41:12;;;;;;;;;23.50;20.00;25.00;40.10;;;;;;110144;1252;57654;-63
2023/05/03 07:43:39;;;;;;;;;24.00;22.00;25.10;40.30;;;;;;110245;1255;53748;-62
2023/05/03 07:46:06;;;;;;;;;26.00;23.00;25.20;40.00;;;;;;110522;1252;49930;-61
2023/05/03 07:48:33;;;;;;;;;23.00;21.00;25.30;39.80;;;;;;110235;1252;51058;-63
2023/05/03 07:51:03;;;;;;;;;23.50;19.00;25.40;39.60;;;;;;110076;1257;47565;-61
2023/05/03 07:53:30;;;;;;;;;20.00;18.33;25.50;39.60;;;;;;109978;1255;56786;-61
2023/05/03 07:55:57;;;;;;;;;25.67;22.00;25.50;39.50;;;;;;110113;1256;54499;-61
2023/05/03 07:58:24;;;;;;;;;27.67;18.00;25.50;39.20;;;;;;110204;1254;49954;-60
2023/05/03 08:00:51;;;;;;;;;17.00;15.00;25.60;39.10;;;;;;110046;1252;48982;-61
2023/05/03 08:03:18;;;;;;;;;;;25.70;36.00;;;;;;110026;1255;47505;-61
2023/05/03 08:05:45;;;;;;;;;18.00;17.00;25.70;34.50;;;;;;110106;1257;56305;-67
2023/05/03 08:08:13;;;;;;;;;23.00;19.00;25.70;34.30;;;;;;110029;1254;54588;-65
2023/05/03 08:10:40;;;;;;;;;19.00;16.00;25.70;36.00;;;;;;110076;1257;49106;-62
2023/05/03 08:13:07;;;;;;;;;25.00;18.00;25.70;37.10;;;;;;110079;1257;50351;-62
2023/05/03 08:15:33;;;;;;;;;19.00;18.00;25.70;37.40;;;;;;110103;1256;46577;-60
2023/05/03 08:18:00;;;;;;;;;21.00;17.00;25.70;37.50;;;;;;110056;1257;56871;-62
2023/05/03 08:20:28;;;;;;;;;18.33;16.00;25.70;38.10;;;;;;110035;1252;54277;-63
2023/05/03 08:22:58;;;;;;;;;23.00;19.50;25.70;37.80;;;;;;110002;1253;50801;-62
2023/05/03 08:25:25;;;;;;;;;18.00;17.00;25.70;37.80;;;;;;109969;1254;49764;-60
2023/05/03 08:27:52;;;;;;;;;19.33;17.33;25.70;37.90;;;;;;110006;1258;46442;-62
2023/05/03 08:30:20;;;;;;;;;24.00;16.00;25.70;38.10;;;;;;110056;1257;57700;-61
2023/05/03 08:32:47;;;;;;;;;19.00;16.00;25.70;37.90;;;;;;110001;1252;55107;-63
2023/05/03 08:35:14;;;;;;;;;23.00;20.00;25.80;38.00;;;;;;109962;1254;49249;-61
2023/05/03 08:37:42;;;;;;;;;23.67;16.67;25.80;38.30;;;;;;110010;1252;48979;-61
2023/05/03 08:40:12;;;;;;;;;19.00;18.00;25.80;38.00;;;;;;110076;1253;46201;-68
2023/05/03 08:42:40;;;;;;;;;19.50;15.50;25.80;38.20;;;;;;110060;1252;56463;-62
2023/05/03 08:45:13;;;;;;;;;19.00;15.00;25.80;38.00;;;;;;110114;1252;53429;-63
2023/05/03 08:47:43;;;;;;;;;21.33;18.00;25.90;38.00;;;;;;110034;1257;49812;-61
2023/05/03 08:50:11;;;;;;;;;17.00;16.00;25.90;38.10;;;;;;110026;1255;49321;-62
2023/05/03 08:52:43;;;;;;;;;21.00;18.00;26.00;38.20;;;;;;110053;1256;46618;-62
2023/05/03 08:55:10;;;;;;;;;17.50;14.00;26.00;38.20;;;;;;110001;1252;57528;-63
2023/05/03 08:57:37;;;;;;;;;20.50;19.00;26.00;38.20;;;;;;110017;1257;54198;-61
2023/05/03 09:00:09;;;;;;;;;20.00;17.00;26.00;38.20;;;;;;109971;1257;49546;-60
2023/05/03 09:02:40;;;;;;;;;20.00;17.00;26.10;38.10;;;;;;110099;1257;50033;-63
2023/05/03 09:05:14;;;;;;;;;15.00;14.00;26.10;38.20;;;;;;110060;1252;46295;-61
2023/05/03 09:08:03;;;;;;;;;18.33;16.33;26.10;38.20;;;;;;109996;1252;56847;-60
2023/05/03 09:10:31;;;;;;;;;16.00;15.00;26.20;38.20;;;;;;110033;1253;54139;-63
2023/05/03 09:13:00;;;;;;;;;25.00;16.00;26.20;38.20;;;;;;110098;1256;49619;-61
2023/05/03 09:15:29;;;;;;;;;18.00;17.00;26.20;38.60;;;;;;110017;1252;50260;-60
2023/05/03 09:18:25;;;;;;;;;16.00;13.33;26.10;38.30;;;;;;110023;1252;46084;-63
2023/05/03 09:20:52;;;;;;;;;15.50;13.00;26.20;38.50;;;;;;109919;1257;56922;-62
2023/05/03 09:23:25;;;;;;;;;17.00;15.33;26.20;38.30;;;;;;110075;1255;53673;-64
2023/05/03 09:25:52;;;;;;;;;18.00;16.00;26.20;38.50;;;;;;110059;1254;49441;-59
2023/05/03 09:28:20;;;;;;;;;18.00;14.00;26.20;38.50;;;;;;109983;1257;50179;-59
2023/05/03 09:30:49;;;;;;;;;20.00;16.50;26.20;38.40;;;;;;110040;1252;47364;-61
2023/05/03 09:33:20;;;;;;;;;18.00;15.00;26.20;38.70;;;;;;110014;1252;57526;-62
2023/05/03 09:36:00;;;;;;;;;15.25;14.00;26.20;38.50;;;;;;109939;1252;53296;-61
2023/05/03 09:38:32;;;;;;;;;17.00;16.00;26.20;38.60;;;;;;109979;1252;49305;-61
2023/05/03 09:41:04;;;;;;;;;18.50;16.00;26.20;38.60;;;;;;109909;1254;49491;-61
2023/05/03 09:43:32;;;;;;;;;18.00;16.50;26.20;38.40;;;;;;109966;1254;47530;-59
2023/05/03 09:46:11;;;;;;;;;15.67;14.67;26.20;38.40;;;;;;110017;1252;56911;-60
2023/05/03 09:48:39;;;;;;;;;17.50;16.50;26.30;38.50;;;;;;109989;1252;53425;-61
2023/05/03 09:51:07;;;;;;;;;16.00;14.00;26.30;38.50;;;;;;110074;1254;49689;-61
2023/05/03 09:53:35;;;;;;;;;21.00;15.00;26.30;38.20;;;;;;110000;1252;49680;-60
2023/05/03 09:56:04;;;;;;;;;19.00;18.00;26.30;38.70;;;;;;109997;1252;46689;-60
2023/05/03 09:58:33;;;;;;;;;16.00;15.00;26.30;38.00;;;;;;110061;1256;56756;-62
2023/05/03 10:01:01;;;;;;;;;16.00;15.00;26.40;38.50;;;;;;110023;1257;54180;-63
2023/05/03 10:03:43;;;;;;;;;16.00;14.75;26.40;38.60;;;;;;109765;1255;50093;-62
2023/05/03 10:06:34;;;;;;;;;16.00;14.00;26.40;38.50;;;;;;110062;1252;49595;-61
2023/05/03 10:09:05;;;;;;;;;20.00;17.50;26.30;38.50;;;;;;109980;1252;45921;-59
2023/05/03 10:11:35;;;;;;;;;18.67;14.00;26.30;38.50;;;;;;110014;1252;56521;-62
2023/05/03 10:14:04;;;;;;;;;17.50;15.50;26.30;38.60;;;;;;110091;1257;54306;-61
2023/05/03 10:16:36;;;;;;;;;17.00;15.67;26.30;38.60;;;;;;110087;1252;49724;-62
2023/05/03 10:19:40;;;;;;;;;18.00;16.00;26.30;38.60;;;;;;109965;1257;49559;-63
2023/05/03 10:22:10;;;;;;;;;15.50;14.00;26.30;38.70;;;;;;109439;1263;47568;-63
2023/05/03 10:25:00;;;;;;;;;18.00;16.33;26.30;38.70;;;;;;109949;1256;56467;-61
2023/05/03 10:27:51;;;;;;;;;17.00;15.00;26.30;38.70;;;;;;109999;1255;54648;-62
2023/05/03 10:30:24;;;;;;;;;18.00;15.50;26.40;38.80;;;;;;109881;1252;50035;-62
2023/05/03 10:32:51;;;;;;;;;16.00;13.50;26.40;39.00;;;;;;109899;1255;49726;-60
2023/05/03 10:35:18;;;;;;;;;18.00;17.00;26.40;38.60;;;;;;110115;1252;46302;-63
2023/05/03 10:37:49;;;;;;;;;16.50;14.00;26.40;38.70;;;;;;109999;1254;56474;-61
2023/05/03 10:40:17;;;;;;;;;16.00;15.00;26.50;38.60;;;;;;110052;1252;53623;-62
2023/05/03 10:42:53;;;;;;;;;13.50;12.00;26.50;38.90;;;;;;110049;1256;50265;-62
2023/05/03 10:45:21;;;;;;;;;15.50;14.50;26.50;38.60;;;;;;110072;1256;50626;-61
2023/05/03 10:48:19;;;;;;;;;15.00;14.00;26.50;38.60;;;;;;110043;1252;47767;-62
2023/05/03 10:50:46;;;;;;;;;15.00;13.00;26.50;39.00;;;;;;110042;1257;57020;-62
2023/05/03 10:53:37;;;;;;;;;16.00;13.00;26.50;39.00;;;;;;110049;1252;54227;-61
2023/05/03 10:56:09;;;;;;;;;14.00;13.00;26.40;38.90;;;;;;110017;1257;49166;-61
2023/05/03 10:58:47;;;;;;;;;13.50;12.50;26.50;39.10;;;;;;109980;1257;49414;-61
2023/05/03 11:01:16;;;;;;;;;18.00;15.00;26.50;39.30;;;;;;110073;1252;46067;-59
2023/05/03 11:03:49;;;;;;;;;19.00;16.50;26.50;38.80;;;;;;110012;1257;56435;-59
2023/05/03 11:06:33;;;;;;;;;16.00;13.50;26.50;39.00;;;;;;110059;1257;53777;-60
2023/05/03 11:09:01;;;;;;;;;17.00;14.00;26.50;38.80;;;;;;110057;1256;49068;-61
2023/05/03 11:11:28;;;;;;;;;15.67;13.67;26.50;38.90;;;;;;110035;1254;50473;-60
2023/05/03 11:13:55;;;;;;;;;15.00;14.00;26.50;38.80;;;;;;110033;1252;46702;-59
2023/05/03 11:16:22;;;;;;;;;14.00;13.00;26.50;39.10;;;;;;110024;1256;57015;-60
2023/05/03 11:18:50;;;;;;;;;13.33;12.00;26.50;38.80;;;;;;110037;1257;53345;-59
2023/05/03 11:21:18;;;;;;;;;18.00;16.00;26.50;39.30;;;;;;110031;1258;49383;-60
2023/05/03 11:23:45;;;;;;;;;15.00;14.00;26.50;38.90;;;;;;110044;1253;49417;-60
2023/05/03 11:26:12;;;;;;;;;16.00;14.50;26.50;38.90;;;;;;110109;1252;46641;-59
2023/05/03 11:28:41;;;;;;;;;15.50;14.00;26.50;39.10;;;;;;110025;1252;57215;-60
2023/05/03 11:31:09;;;;;;;;;17.00;14.50;26.50;38.90;;;;;;110096;1256;53457;-60
2023/05/03 11:33:37;;;;;;;;;15.00;14.00;26.50;39.10;;;;;;110097;1256;49600;-60
2023/05/03 11:36:06;;;;;;;;;12.00;11.00;26.50;38.50;;;;;;110024;1257;49794;-61
2023/05/03 11:38:34;;;;;;;;;15.00;13.00;26.50;38.90;;;;;;110041;1257;45957;-61
2023/05/03 11:41:12;;;;;;;;;18.00;14.00;26.50;38.90;;;;;;110050;1257;57433;-61
2023/05/03 11:43:43;;;;;;;;;13.67;12.67;26.50;38.90;;;;;;110039;1255;53292;-61
2023/05/03 11:46:11;;;;;;;;;15.00;14.00;26.50;39.00;;;;;;109974;1257;50454;-62
2023/05/03 11:48:38;;;;;;;;;15.00;12.00;26.50;38.90;;;;;;110040;1252;49648;-59
2023/05/03 11:51:10;;;;;;;;;16.00;13.00;26.50;38.80;;;;;;109994;1256;47587;-61
2023/05/03 11:53:38;;;;;;;;;13.25;12.00;26.50;38.80;;;;;;110041;1252;56810;-62
2023/05/03 11:56:08;;;;;;;;;14.00;13.00;26.50;38.80;;;;;;110052;1255;54058;-61
2023/05/03 11:58:56;;;;;;;;;17.00;13.00;26.50;38.90;;;;;;110035;1256;49362;-60
2023/05/03 12:01:25;;;;;;;;;16.00;14.00;26.50;37.60;;;;;;109740;1254;49480;-61
2023/05/03 12:03:57;;;;;;;;;14.00;12.00;26.50;38.40;;;;;;110085;1258;46156;-61
2023/05/03 12:06:26;;;;;;;;;14.00;13.00;26.50;38.60;;;;;;110076;1255;57033;-62
2023/05/03 12:08:53;;;;;;;;;16.00;13.00;26.50;38.70;;;;;;110055;1257;54518;-61
2023/05/03 12:11:21;;;;;;;;;14.50;14.00;26.50;38.70;;;;;;110038;1256;49981;-61
2023/05/03 12:14:01;;;;;;;;;14.00;13.00;26.50;38.70;;;;;;110133;1252;49707;-63
2023/05/03 12:16:51;;;;;;;;;13.00;12.00;26.50;38.70;;;;;;110024;1257;46663;-62
2023/05/03 12:19:28;;;;;;;;;15.00;13.00;26.50;38.80;;;;;;110092;1256;57165;-61
2023/05/03 12:21:55;;;;;;;;;14.00;12.50;26.50;38.90;;;;;;110067;1256;53485;-62
2023/05/03 12:24:22;;;;;;;;;17.00;15.00;26.50;38.50;;;;;;110029;1257;50094;-61
2023/05/03 12:26:49;;;;;;;;;18.00;16.00;26.50;38.90;;;;;;110042;1256;49290;-60
2023/05/03 12:29:16;;;;;;;;;13.00;12.00;26.50;38.80;;;;;;110002;1254;46436;-61